Time;durP1;ratioP1;P1;durP2;ratioP2;P2;SDS_P1;SDS_P2;PMS_P1;PMS_P2;Temp;Humidity;BMP_temperature;BMP_pressure;BME280_temperature;BME280_humidity;BME280_pressure;Samples;Min_cycle;Max_cycle;Signal;HPM_P1;HPM_P2
2022/06/29 00:02:06;;;;;;;9.05;3.15;;;;;;;17.04;70.71;101684.30;1715628;82;21065;-89
2022/06/29 00:04:38;;;;;;;8.35;3.17;;;;;;;17.02;70.84;101686.02;1728650;82;21128;-89
2022/06/29 00:07:05;;;;;;;10.58;3.50;;;;;;;17.00;70.94;101693.53;1731669;82;21058;-88
2022/06/29 00:09:32;;;;;;;5.65;3.37;;;;;;;16.98;71.07;101694.83;1726367;82;21742;-87
2022/06/29 00:11:58;;;;;;;8.90;3.30;;;;;;;16.97;71.20;101693.47;1696378;84;21129;-86
2022/06/29 00:14:25;;;;;;;7.72;3.90;;;;;;;16.95;71.25;101692.15;1694160;84;21133;-88
2022/06/29 00:16:59;;;;;;;9.03;3.55;;;;;;;16.95;71.34;101693.48;1692161;84;21059;-88
2022/06/29 00:19:28;;;;;;;8.58;3.30;;;;;;;16.95;71.43;101692.56;1733812;82;21527;-87
2022/06/29 00:22:04;;;;;;;8.53;3.12;;;;;;;16.93;71.52;101691.65;1701382;83;22672;-89
2022/06/29 00:24:31;;;;;;;6.78;3.50;;;;;;;16.90;71.58;101692.52;1707820;82;21117;-88
2022/06/29 00:26:58;;;;;;;5.72;2.90;;;;;;;16.90;71.77;101701.82;1716125;82;21140;-89
2022/06/29 00:29:25;;;;;;;7.40;3.52;;;;;;;16.89;71.81;101698.69;1738740;81;21045;-89
2022/06/29 00:31:52;;;;;;;6.28;3.22;;;;;;;16.89;71.81;101698.28;1722950;82;21077;-88
2022/06/29 00:34:18;;;;;;;7.35;3.67;;;;;;;16.88;71.91;101701.79;1720062;82;22394;-89
2022/06/29 00:36:45;;;;;;;12.03;3.42;;;;;;;16.87;72.05;101705.34;1719911;82;21026;-89
2022/06/29 00:39:20;;;;;;;5.20;3.60;;;;;;;16.87;72.14;101696.45;1700059;84;21027;-89
2022/06/29 00:41:58;;;;;;;8.23;3.45;;;;;;;16.84;72.11;101695.09;1712059;82;21096;-88
2022/06/29 00:44:25;;;;;;;9.25;3.58;;;;;;;16.83;72.27;101699.94;1679195;84;21063;-90
2022/06/29 00:46:58;;;;;;;9.33;3.87;;;;;;;16.82;72.31;101699.05;1637700;85;22556;-87
2022/06/29 00:49:27;;;;;;;5.58;3.40;;;;;;;16.80;72.29;101694.53;1722154;82;22196;-88
2022/06/29 00:52:10;;;;;;;6.75;3.75;;;;;;;16.79;72.40;101701.63;1711837;82;21069;-89
2022/06/29 00:55:09;;;;;;;8.10;3.47;;;;;;;16.78;72.45;101698.94;1702163;82;21054;-87
2022/06/29 00:57:37;;;;;;;7.17;4.00;;;;;;;16.77;72.52;101699.38;1719776;81;21026;-87
2022/06/29 01:00:10;;;;;;;9.15;3.47;;;;;;;16.75;72.56;101703.78;1727153;82;21771;-89
2022/06/29 01:02:37;;;;;;;10.38;4.00;;;;;;;16.73;72.60;101692.68;1726661;82;21017;-87
2022/06/29 01:05:05;;;;;;;9.35;4.20;;;;;;;16.71;72.70;101696.20;1720271;82;21522;-89
2022/06/29 01:07:33;;;;;;;8.15;3.55;;;;;;;16.69;72.66;101692.62;1711695;82;21058;-89
2022/06/29 01:10:07;;;;;;;7.17;3.80;;;;;;;16.66;72.70;101697.00;1704336;84;21543;-87
2022/06/29 01:12:36;;;;;;;9.98;4.17;;;;;;;16.62;72.77;101697.83;1704485;84;21777;-87
2022/06/29 01:15:03;;;;;;;9.03;3.95;;;;;;;16.58;72.85;101691.56;1717724;82;21061;-86
2022/06/29 01:17:38;;;;;;;5.75;3.60;;;;;;;16.54;72.89;101688.41;1708172;82;21077;-88
2022/06/29 01:20:07;;;;;;;4.90;3.80;;;;;;;16.52;73.02;101687.50;1722776;82;21526;-89
2022/06/29 01:22:34;;;;;;;7.12;3.90;;;;;;;16.50;73.15;101691.45;1701777;82;21069;-87
2022/06/29 01:25:00;;;;;;;6.17;3.70;;;;;;;16.50;73.23;101675.95;1683639;83;22593;-88
2022/06/29 01:27:27;;;;;;;10.05;4.33;;;;;;;16.49;73.26;101676.36;1690008;83;21543;-88
2022/06/29 01:29:54;;;;;;;11.03;4.10;;;;;;;16.48;73.31;101674.59;1668532;84;21626;-88
2022/06/29 01:32:21;;;;;;;10.95;4.20;;;;;;;16.45;73.34;101669.22;1697582;84;21423;-88
2022/06/29 01:34:48;;;;;;;8.85;4.35;;;;;;;16.44;73.39;101662.14;1697830;84;21110;-89
2022/06/29 01:37:24;;;;;;;7.95;4.20;;;;;;;16.42;73.41;101659.89;1666906;85;21729;-88
2022/06/29 01:39:51;;;;;;;11.40;5.75;;;;;;;16.40;73.39;101662.05;1687839;84;21538;-88
2022/06/29 01:42:26;;;;;;;8.35;4.12;;;;;;;16.35;73.44;101664.64;1711116;82;21813;-88
2022/06/29 01:44:54;;;;;;;7.42;4.87;;;;;;;16.30;73.52;101661.90;1692174;83;21120;-87
2022/06/29 01:47:27;;;;;;;7.10;4.00;;;;;;;16.28;73.55;101661.42;1710667;83;21058;-87
2022/06/29 01:50:09;;;;;;;8.63;4.87;;;;;;;16.23;73.60;101655.13;1691827;83;21750;-88
2022/06/29 01:52:35;;;;;;;7.75;4.95;;;;;;;16.20;73.69;101655.99;1706164;83;21058;-88
2022/06/29 01:55:03;;;;;;;8.05;5.37;;;;;;;16.16;73.78;101648.84;1717502;82;21096;-89
2022/06/29 01:57:30;;;;;;;8.60;4.85;;;;;;;16.12;73.89;101639.02;1721254;82;21069;-89
2022/06/29 01:59:57;;;;;;;6.90;4.50;;;;;;;16.11;74.04;101640.78;1662529;85;21039;-89
2022/06/29 02:02:23;;;;;;;8.40;4.87;;;;;;;16.10;74.08;101640.34;1686938;84;21781;-89
2022/06/29 02:04:50;;;;;;;9.28;4.78;;;;;;;16.10;74.21;101632.79;1675858;84;21610;-88
2022/06/29 02:07:17;;;;;;;7.83;4.20;;;;;;;16.09;74.25;101635.00;1737645;82;21059;-88
2022/06/29 02:09:50;;;;;;;8.80;4.83;;;;;;;16.08;74.45;101628.77;1747583;82;21806;-88
2022/06/29 02:12:16;;;;;;;9.30;4.75;;;;;;;16.10;74.54;101619.51;1726054;82;21068;-88
2022/06/29 02:14:44;;;;;;;10.05;4.92;;;;;;;16.09;74.55;101621.72;1717830;82;21210;-88
2022/06/29 02:17:23;;;;;;;6.62;4.30;;;;;;;16.09;74.65;101623.05;1716652;83;21013;-88
2022/06/29 02:20:07;;;;;;;13.98;5.20;;;;;;;16.11;74.71;101634.59;1720495;82;21064;-87
2022/06/29 02:22:35;;;;;;;9.33;5.67;;;;;;;16.08;74.72;101638.52;1741177;82;21101;-89
2022/06/29 02:25:03;;;;;;;10.23;5.55;;;;;;;16.07;74.82;101634.97;1718654;82;21166;-88
2022/06/29 02:27:30;;;;;;;5.90;4.35;;;;;;;16.05;74.90;101639.81;1694464;83;23200;-89
2022/06/29 02:29:58;;;;;;;8.88;5.33;;;;;;;16.06;74.99;101622.55;1718257;83;21077;-88
2022/06/29 02:35:09;;;;;;;9.40;5.30;;;;;;;16.10;75.09;101619.51;1722844;82;21041;-88
2022/06/29 02:37:36;;;;;;;9.70;5.12;;;;;;;16.10;75.17;101620.84;1747702;82;21041;-88
2022/06/29 02:40:06;;;;;;;9.58;4.55;;;;;;;16.09;75.20;101620.39;1747385;82;22606;-90
2022/06/29 02:42:34;;;;;;;11.33;5.25;;;;;;;16.11;75.31;101621.31;1719020;82;21018;-89
2022/06/29 02:45:01;;;;;;;7.72;4.65;;;;;;;16.15;75.42;101618.27;1714773;82;21060;-89
2022/06/29 02:47:28;;;;;;;11.55;4.83;;;;;;;16.21;75.53;101619.69;1704197;82;21076;-88
2022/06/29 02:49:54;;;;;;;9.45;4.92;;;;;;;16.26;75.52;101616.68;1716768;83;21093;-87
2022/06/29 02:52:24;;;;;;;8.23;4.78;;;;;;;16.31;75.52;101614.96;1728992;82;21782;-89
2022/06/29 02:54:51;;;;;;;8.23;4.75;;;;;;;16.40;75.48;101618.20;1737616;82;21032;-90
2022/06/29 02:57:20;;;;;;;6.28;4.05;;;;;;;16.48;75.43;101623.22;1713804;82;21059;-90
2022/06/29 02:59:47;;;;;;;10.50;4.47;;;;;;;16.55;75.36;101625.51;1733586;82;21552;-87
2022/06/29 03:02:14;;;;;;;7.03;5.00;;;;;;;16.64;75.40;101622.54;1743100;82;21495;-89
2022/06/29 03:04:42;;;;;;;9.53;5.03;;;;;;;16.74;75.24;101614.25;1734370;82;21832;-88
2022/06/29 03:07:09;;;;;;;8.15;5.20;;;;;;;16.81;75.12;101608.14;1737956;82;21021;-89
2022/06/29 03:09:47;;;;;;;6.00;4.87;;;;;;;16.90;75.06;101604.76;1743422;82;21025;-87
2022/06/29 03:12:14;;;;;;;8.80;5.20;;;;;;;17.00;74.96;101612.41;1710473;82;21241;-87
2022/06/29 03:14:43;;;;;;;6.08;4.45;;;;;;;17.10;74.95;101610.33;1743699;82;20990;-87
2022/06/29 03:17:10;;;;;;;9.23;5.12;;;;;;;17.20;74.88;101609.99;1743428;81;22604;-89
2022/06/29 03:19:37;;;;;;;7.37;4.50;;;;;;;17.31;74.70;101604.80;1743125;82;20982;-88
2022/06/29 03:22:04;;;;;;;11.35;5.22;;;;;;;17.40;74.58;101607.53;1743872;82;21057;-88
2022/06/29 03:24:31;;;;;;;9.13;4.50;;;;;;;17.51;74.50;101597.89;1713392;81;21433;-88
2022/06/29 03:26:58;;;;;;;7.60;5.05;;;;;;;17.62;74.39;101598.00;1705077;82;21041;-88
2022/06/29 03:29:25;;;;;;;6.75;4.30;;;;;;;17.78;74.46;101599.93;1712249;83;22616;-88
2022/06/29 03:31:59;;;;;;;9.18;4.12;;;;;;;18.31;75.74;101599.92;1739525;82;21019;-88
2022/06/29 03:34:27;;;;;;;6.17;4.50;;;;;;;19.64;76.23;101600.48;1729429;81;21056;-89
2022/06/29 03:36:53;;;;;;;7.47;4.42;;;;;;;20.92;75.39;101603.91;1682521;84;21078;-88
2022/06/29 03:39:27;;;;;;;7.05;4.17;;;;;;;22.17;73.39;101599.97;1732429;82;22060;-88
2022/06/29 03:41:54;;;;;;;7.37;4.10;;;;;;;22.36;69.66;101609.22;1725215;82;21252;-88
2022/06/29 03:44:21;;;;;;;4.95;3.90;;;;;;;21.94;68.46;101601.06;1718077;82;21029;-89
2022/06/29 03:46:47;;;;;;;6.67;4.72;;;;;;;21.63;67.90;101609.79;1728245;82;21100;-88
2022/06/29 03:49:15;;;;;;;7.92;4.17;;;;;;;21.48;67.73;101616.14;1707827;82;21242;-89
2022/06/29 03:51:41;;;;;;;5.85;4.15;;;;;;;21.49;67.71;101618.36;1697759;82;21088;-90
2022/06/29 03:54:08;;;;;;;8.33;4.50;;;;;;;22.02;68.53;101622.45;1704225;84;21746;-89
2022/06/29 03:56:37;;;;;;;5.55;3.58;;;;;;;23.26;68.96;101627.41;1702500;82;21566;-89
2022/06/29 03:59:04;;;;;;;6.62;3.90;;;;;;;25.05;68.21;101621.66;1718462;82;21026;-87
2022/06/29 04:01:32;;;;;;;6.70;4.08;;;;;;;27.12;66.41;101629.91;1730869;82;21089;-87
2022/06/29 04:03:59;;;;;;;10.43;3.60;;;;;;;29.05;64.35;101630.19;1731295;82;21090;-90
2022/06/29 04:06:27;;;;;;;4.70;2.75;;;;;;;30.59;60.56;101630.66;1706812;82;21774;-89
2022/06/29 04:08:54;;;;;;;3.67;2.92;;;;;;;31.77;58.34;101622.86;1720063;82;22277;-90
2022/06/29 04:14:06;;;;;;;5.33;3.08;;;;;;;33.91;53.81;101620.80;1701916;82;21136;-91
2022/06/29 04:16:45;;;;;;;4.85;3.17;;;;;;;34.92;51.35;101616.45;1719835;82;21041;-91
2022/06/29 04:19:14;;;;;;;7.05;2.72;;;;;;;35.65;49.08;101613.11;1687051;84;22554;-90
2022/06/29 04:21:41;;;;;;;7.65;2.75;;;;;;;36.28;47.44;101617.05;1702952;83;21570;-89
2022/06/29 04:24:08;;;;;;;6.03;3.27;;;;;;;36.85;45.48;101609.80;1706637;82;21112;-91
2022/06/29 04:26:41;;;;;;;3.75;2.60;;;;;;;37.20;43.66;101606.84;1708495;82;21173;-90
2022/06/29 04:29:09;;;;;;;5.50;2.52;;;;;;;37.65;43.29;101608.52;1709916;82;21041;-91
2022/06/29 04:31:36;;;;;;;4.78;2.12;;;;;;;38.06;41.40;101604.44;1729307;82;22522;-90
2022/06/29 04:34:03;;;;;;;9.20;3.60;;;;;;;38.46;40.09;101602.20;1722568;82;21053;-89
2022/06/29 04:36:30;;;;;;;3.58;2.45;;;;;;;38.28;38.46;101593.53;1733540;82;20995;-91
2022/06/29 04:39:09;;;;;;;4.20;2.85;;;;;;;37.36;37.76;101590.98;1733395;82;21014;-88
2022/06/29 04:41:35;;;;;;;5.08;3.00;;;;;;;37.44;37.50;101596.77;1701683;82;21102;-90
2022/06/29 04:44:03;;;;;;;5.42;3.25;;;;;;;37.83;37.38;101594.74;1674132;84;21616;-89
2022/06/29 04:46:30;;;;;;;5.95;3.00;;;;;;;38.33;36.50;101589.54;1679175;84;21153;-87
2022/06/29 04:49:02;;;;;;;5.40;2.65;;;;;;;38.10;35.06;101585.36;1681394;84;21027;-89
2022/06/29 04:51:38;;;;;;;6.45;2.95;;;;;;;37.50;35.01;101575.72;1702282;84;21073;-90
2022/06/29 04:54:05;;;;;;;4.70;3.00;;;;;;;36.14;34.53;101577.75;1688876;83;21181;-88
2022/06/29 04:56:34;;;;;;;6.30;3.22;;;;;;;33.98;34.62;101575.76;1691913;84;21784;-89
2022/06/29 04:59:06;;;;;;;6.28;4.20;;;;;;;32.04;35.62;101571.59;1687279;84;21106;-90
2022/06/29 05:05:24;;;;;;;5.80;2.98;;;;;;;28.99;37.93;101567.61;1672733;85;21074;-94
2022/06/29 05:07:54;;;;;;;3.87;3.12;;;;;;;27.36;39.87;101564.34;1675074;84;21082;-87
2022/06/29 05:10:28;;;;;;;4.25;3.05;;;;;;;26.62;41.31;101565.23;1671819;84;21784;-86
2022/06/29 05:12:55;;;;;;;7.15;3.20;;;;;;;26.16;42.23;101568.70;1692194;83;21652;-85
2022/06/29 05:15:22;;;;;;;5.20;3.50;;;;;;;26.02;43.28;101571.78;1680394;84;21571;-87
2022/06/29 05:17:48;;;;;;;3.60;2.98;;;;;;;26.10;43.92;101577.84;1677611;84;21611;-86
2022/06/29 05:20:17;;;;;;;5.58;2.92;;;;;;;25.96;43.92;101579.56;1686783;84;21582;-89
2022/06/29 05:22:47;;;;;;;6.78;3.37;;;;;;;25.89;44.60;101583.78;1688843;84;21737;-89
2022/06/29 05:25:15;;;;;;;4.25;2.87;;;;;;;25.67;44.70;101594.21;1676169;84;21098;-88
2022/06/29 05:27:42;;;;;;;5.60;2.90;;;;;;;25.61;45.25;101599.30;1698321;84;21074;-87
2022/06/29 05:30:09;;;;;;;5.75;3.27;;;;;;;25.61;45.64;101596.13;1687740;84;21078;-87
2022/06/29 05:32:36;;;;;;;7.17;2.90;;;;;;;25.94;45.80;101591.30;1684744;83;21071;-87
2022/06/29 05:35:04;;;;;;;6.62;2.90;;;;;;;26.28;46.06;101594.02;1691580;84;21858;-87
2022/06/29 05:37:32;;;;;;;4.53;2.90;;;;;;;27.10;45.62;101583.14;1696385;84;21122;-86
2022/06/29 05:40:02;;;;;;;5.50;3.83;;;;;;;27.19;45.00;101580.59;1686572;84;21087;-87
2022/06/29 05:42:29;;;;;;;6.25;3.17;;;;;;;27.18;44.94;101582.90;1680708;83;21139;-87
2022/06/29 05:44:56;;;;;;;4.62;2.92;;;;;;;27.04;44.86;101590.53;1728342;82;21029;-87
2022/06/29 05:47:23;;;;;;;5.75;2.72;;;;;;;26.88;45.07;101585.59;1735998;82;22571;-87
2022/06/29 05:49:50;;;;;;;6.05;2.87;;;;;;;26.78;44.96;101581.86;1716824;82;21146;-87
2022/06/29 05:52:16;;;;;;;3.52;2.25;;;;;;;26.75;45.38;101580.14;1709823;82;21104;-87
2022/06/29 05:54:43;;;;;;;4.30;2.37;;;;;;;26.94;45.40;101574.59;1711091;83;21587;-88
2022/06/29 05:57:10;;;;;;;6.05;2.85;;;;;;;27.03;45.31;101575.23;1701236;83;21109;-87
2022/06/29 05:59:41;;;;;;;5.17;2.50;;;;;;;27.17;45.39;101573.48;1702434;82;21786;-87
2022/06/29 06:02:08;;;;;;;6.30;3.33;;;;;;;27.32;45.24;101573.89;1714625;83;21053;-87
2022/06/29 06:04:35;;;;;;;5.12;2.98;;;;;;;27.32;44.89;101575.73;1711737;82;21069;-87
2022/06/29 06:07:01;;;;;;;5.75;2.80;;;;;;;27.27;44.95;101573.63;1703581;83;21568;-87
2022/06/29 06:09:28;;;;;;;5.10;3.55;;;;;;;27.36;45.01;101569.75;1702408;83;21101;-87
2022/06/29 06:11:55;;;;;;;4.95;2.60;;;;;;;27.53;45.03;101568.25;1709198;83;21947;-87
2022/06/29 06:14:22;;;;;;;3.05;2.70;;;;;;;27.65;45.06;101569.69;1708416;83;21049;-87
2022/06/29 06:16:49;;;;;;;3.40;2.02;;;;;;;27.67;44.65;101574.58;1708494;83;21087;-87
2022/06/29 06:19:15;;;;;;;5.67;2.17;;;;;;;27.63;44.71;101575.63;1718900;83;21568;-88
2022/06/29 06:21:42;;;;;;;5.53;2.80;;;;;;;27.61;44.75;101568.03;1717355;83;21094;-87
2022/06/29 06:24:09;;;;;;;4.28;2.70;;;;;;;27.64;44.85;101573.31;1709471;82;21754;-88
2022/06/29 06:26:36;;;;;;;5.28;2.35;;;;;;;27.49;44.42;101569.30;1713844;82;21050;-87
2022/06/29 06:29:03;;;;;;;4.00;2.47;;;;;;;27.13;44.59;101565.45;1699869;82;21141;-88
2022/06/29 06:31:29;;;;;;;2.85;2.27;;;;;;;26.98;44.96;101570.47;1685615;83;21121;-87
2022/06/29 06:33:56;;;;;;;3.47;2.15;;;;;;;27.05;45.22;101565.30;1703568;82;21068;-87
2022/06/29 06:36:24;;;;;;;3.00;2.62;;;;;;;27.14;45.23;101563.62;1711555;82;21805;-88
2022/06/29 06:38:51;;;;;;;3.98;2.62;;;;;;;27.13;45.01;101572.69;1710508;82;21120;-88
2022/06/29 06:41:21;;;;;;;7.12;2.10;;;;;;;26.86;44.96;101581.15;1729622;82;21073;-87
2022/06/29 06:43:52;;;;;;;3.30;2.17;;;;;;;26.57;45.23;101578.81;1721140;81;21265;-87
2022/06/29 06:46:19;;;;;;;3.75;2.60;;;;;;;26.37;45.54;101580.71;1731568;82;21598;-88
2022/06/29 06:48:46;;;;;;;3.00;2.22;;;;;;;26.45;45.90;101573.31;1728207;82;21768;-87
2022/06/29 06:51:13;;;;;;;3.70;3.40;;;;;;;26.56;45.94;101571.19;1714862;81;21520;-87
2022/06/29 06:53:40;;;;;;;4.25;3.75;;;;;;;26.63;45.78;101574.61;1740864;81;21037;-87
2022/06/29 06:56:06;;;;;;;4.50;2.67;;;;;;;26.57;45.47;101566.66;1739559;82;21063;-87
2022/06/29 06:58:37;;;;;;;3.90;3.45;;;;;;;26.45;45.80;101561.16;1726007;82;21028;-88
2022/06/29 07:01:07;;;;;;;3.10;2.15;;;;;;;26.31;45.61;101561.52;1719241;82;21771;-88
2022/06/29 07:03:38;;;;;;;3.45;2.47;;;;;;;26.15;45.68;101561.08;1716887;82;21040;-86
2022/06/29 07:06:08;;;;;;;2.22;2.00;;;;;;;25.96;45.93;101559.81;1731599;82;21063;-86
2022/06/29 07:08:37;;;;;;;7.72;2.30;;;;;;;25.71;46.25;101558.16;1667288;85;21130;-88
2022/06/29 07:11:04;;;;;;;4.25;3.12;;;;;;;25.64;46.64;101559.23;1731143;82;21567;-87
2022/06/29 07:13:34;;;;;;;3.27;2.30;;;;;;;25.48;46.77;101565.47;1725770;82;21768;-88
2022/06/29 07:16:04;;;;;;;2.47;2.02;;;;;;;25.27;46.90;101565.05;1711781;82;21120;-88
2022/06/29 07:18:34;;;;;;;8.68;2.62;;;;;;;25.08;47.09;101567.25;1734227;82;21057;-88
2022/06/29 07:21:00;;;;;;;3.45;2.27;;;;;;;24.82;47.36;101567.35;1704796;82;21017;-89
2022/06/29 07:23:27;;;;;;;10.72;2.98;;;;;;;24.72;47.93;101569.83;1722300;82;21088;-88
2022/06/29 07:26:00;;;;;;;3.90;2.33;;;;;;;24.68;47.93;101576.16;1715439;82;21688;-88
2022/06/29 07:28:27;;;;;;;5.08;2.52;;;;;;;24.56;48.21;101569.70;1743396;82;21042;-88
2022/06/29 07:30:54;;;;;;;3.45;2.33;;;;;;;24.60;48.60;101572.29;1718296;82;21044;-88
2022/06/29 07:33:20;;;;;;;4.47;2.15;;;;;;;24.67;48.58;101566.34;1734829;82;21037;-88
2022/06/29 07:35:47;;;;;;;5.55;2.77;;;;;;;24.97;48.82;101568.83;1731794;82;21108;-88
2022/06/29 07:38:14;;;;;;;3.08;2.20;;;;;;;25.35;48.41;101559.48;1731184;82;21774;-88
2022/06/29 07:40:41;;;;;;;5.92;2.45;;;;;;;25.54;47.98;101559.45;1712223;82;21029;-88
2022/06/29 07:43:08;;;;;;;3.50;1.90;;;;;;;25.62;47.76;101563.34;1722033;82;21558;-88
2022/06/29 07:45:35;;;;;;;4.95;2.30;;;;;;;25.77;47.67;101565.64;1714361;82;21072;-88
2022/06/29 07:48:02;;;;;;;2.83;2.55;;;;;;;26.07;47.32;101568.94;1735601;82;21108;-88
2022/06/29 07:50:29;;;;;;;3.45;1.87;;;;;;;26.41;47.15;101563.97;1732577;82;21771;-88
2022/06/29 07:52:58;;;;;;;5.53;1.80;;;;;;;26.65;46.69;101570.52;1724593;82;21056;-88
2022/06/29 07:55:25;;;;;;;3.72;3.37;;;;;;;26.74;46.20;101563.50;1654376;84;21631;-88
2022/06/29 07:57:52;;;;;;;2.87;2.60;;;;;;;26.79;45.97;101552.58;1672936;84;21101;-87
2022/06/29 08:00:19;;;;;;;4.40;2.98;;;;;;;26.63;45.68;101548.95;1723483;82;21083;-87
2022/06/29 08:02:48;;;;;;;3.52;2.62;;;;;;;26.44;45.72;101550.39;1738775;82;21705;-88
2022/06/29 08:05:14;;;;;;;4.83;3.87;;;;;;;26.29;46.07;101545.84;1721574;82;21061;-88
2022/06/29 08:07:41;;;;;;;5.03;3.62;;;;;;;26.34;46.12;101544.38;1683812;84;21094;-87
2022/06/29 08:10:09;;;;;;;4.20;2.52;;;;;;;26.33;45.75;101545.30;1680198;85;21087;-88
2022/06/29 08:12:35;;;;;;;2.90;2.30;;;;;;;26.23;46.07;101543.80;1676130;85;21099;-88
2022/06/29 08:15:04;;;;;;;5.78;2.60;;;;;;;26.23;46.04;101545.14;1672786;85;21799;-88
2022/06/29 08:17:31;;;;;;;2.55;2.35;;;;;;;26.23;45.97;101545.14;1641440;85;21106;-88
2022/06/29 08:19:58;;;;;;;3.40;2.72;;;;;;;26.22;46.02;101542.02;1646111;85;21730;-88
2022/06/29 08:22:25;;;;;;;6.65;2.20;;;;;;;26.23;45.80;101537.92;1662772;85;21123;-87
2022/06/29 08:24:51;;;;;;;2.65;2.00;;;;;;;26.13;45.79;101530.55;1674740;85;21059;-88
2022/06/29 08:27:22;;;;;;;8.35;6.20;;;;;;;26.14;45.95;101532.30;1668296;85;21738;-87
2022/06/29 08:29:50;;;;;;;3.80;2.87;;;;;;;26.08;45.93;101530.26;1667891;85;21055;-87
2022/06/29 08:32:17;;;;;;;3.37;2.55;;;;;;;25.94;46.01;101534.66;1676289;85;21596;-87
2022/06/29 08:34:44;;;;;;;2.85;2.55;;;;;;;25.87;46.01;101532.57;1692923;84;21178;-86
2022/06/29 08:37:10;;;;;;;3.12;2.37;;;;;;;25.85;46.19;101530.38;1702370;82;21055;-87
2022/06/29 08:39:37;;;;;;;4.22;2.40;;;;;;;25.89;46.20;101529.37;1711933;82;22539;-86
2022/06/29 08:42:05;;;;;;;4.33;1.95;;;;;;;25.76;46.01;101533.31;1724626;81;21068;-86
2022/06/29 08:44:36;;;;;;;2.75;2.17;;;;;;;25.42;46.16;101523.38;1702380;82;21094;-87
2022/06/29 08:47:12;;;;;;;3.22;2.20;;;;;;;25.30;46.42;101531.31;1646643;85;21085;-86
2022/06/29 08:49:39;;;;;;;3.37;2.83;;;;;;;25.20;46.54;101529.70;1718709;83;21575;-86
2022/06/29 08:52:08;;;;;;;6.10;3.27;;;;;;;25.21;46.57;101533.72;1706783;82;21845;-87
2022/06/29 08:54:38;;;;;;;5.30;2.77;;;;;;;25.25;46.66;101531.87;1697407;82;22443;-87
2022/06/29 08:57:05;;;;;;;2.58;2.37;;;;;;;25.22;46.66;101533.25;1694921;83;21069;-87
2022/06/29 08:59:34;;;;;;;2.22;2.00;;;;;;;25.32;46.93;101535.29;1710975;81;21097;-88
2022/06/29 09:02:01;;;;;;;4.37;2.30;;;;;;;25.49;46.88;101535.79;1714073;81;21121;-87
2022/06/29 09:04:28;;;;;;;5.10;2.12;;;;;;;25.70;46.78;101538.41;1712520;81;21793;-87
2022/06/29 09:06:59;;;;;;;3.37;2.17;;;;;;;26.00;46.76;101537.22;1714265;81;21077;-87
2022/06/29 09:09:24;;;;;;;2.40;2.20;;;;;;;26.40;46.41;101532.52;1694127;83;21693;-87
2022/06/29 09:11:52;;;;;;;2.15;1.87;;;;;;;26.76;46.18;101538.20;1707861;82;21113;-87
2022/06/29 09:14:23;;;;;;;2.87;1.90;;;;;;;27.08;45.70;101536.33;1705830;83;21034;-88
2022/06/29 09:16:54;;;;;;;1.77;1.60;;;;;;;27.29;45.24;101536.62;1702628;82;21829;-88
2022/06/29 09:19:22;;;;;;;2.20;1.92;;;;;;;27.45;45.05;101536.54;1713997;82;21429;-87
2022/06/29 09:21:53;;;;;;;6.03;2.00;;;;;;;27.66;44.90;101534.92;1718164;82;21120;-88
2022/06/29 09:24:26;;;;;;;3.47;1.90;;;;;;;27.98;44.41;101541.08;1676304;83;21481;-87
2022/06/29 09:26:55;;;;;;;3.27;1.90;;;;;;;28.20;43.89;101541.69;1719712;82;21092;-88
2022/06/29 09:29:26;;;;;;;4.80;2.00;;;;;;;28.31;43.56;101541.70;1703179;82;22537;-87
2022/06/29 09:32:06;;;;;;;2.30;2.00;;;;;;;28.49;43.20;101546.01;1707720;82;21121;-87
2022/06/29 09:34:50;;;;;;;4.30;2.17;;;;;;;28.58;42.70;101542.11;1727447;82;22252;-87
2022/06/29 09:37:22;;;;;;;2.80;2.00;;;;;;;28.47;42.43;101533.91;1692180;83;21042;-88
2022/06/29 09:39:52;;;;;;;4.55;1.87;;;;;;;28.60;42.58;101536.17;1700328;82;21080;-88
2022/06/29 09:42:21;;;;;;;2.52;2.10;;;;;;;28.73;42.25;101533.88;1675382;83;22517;-88
2022/06/29 09:44:48;;;;;;;2.20;2.00;;;;;;;28.60;41.95;101533.46;1710671;83;21642;-89
2022/06/29 09:47:19;;;;;;;4.65;2.22;;;;;;;28.33;41.86;101532.65;1726432;83;21057;-89
2022/06/29 09:49:56;;;;;;;3.20;2.25;;;;;;;28.13;41.75;101530.18;1708347;83;21500;-89
2022/06/29 09:52:23;;;;;;;4.37;2.40;;;;;;;27.90;42.29;101527.83;1728311;82;21057;-89
2022/06/29 09:54:57;;;;;;;3.87;2.83;;;;;;;27.60;42.25;101524.80;1726236;82;22564;-88
2022/06/29 09:57:30;;;;;;;4.03;3.02;;;;;;;27.23;42.74;101529.55;1731497;82;21048;-89
2022/06/29 10:02:53;;;;;;;7.60;2.80;;;;;;;26.44;43.83;101535.08;1722005;83;21077;-89
2022/06/29 10:05:25;;;;;;;6.37;4.10;;;;;;;26.36;44.47;101539.82;1728664;83;21050;-88
2022/06/29 10:07:53;;;;;;;7.62;4.05;;;;;;;26.22;44.70;101536.14;1730968;82;21710;-88
2022/06/29 10:10:23;;;;;;;13.03;3.67;;;;;;;25.83;44.98;101541.67;1716273;83;20991;-88
2022/06/29 10:16:09;;;;;;;4.67;3.52;;;;;;;25.29;45.95;101556.94;1697673;83;21109;-88
2022/06/29 10:19:02;;;;;;;5.42;3.37;;;;;;;25.21;46.42;101561.13;1732098;81;21040;-88
2022/06/29 10:21:31;;;;;;;5.10;3.33;;;;;;;25.08;46.67;101546.17;1724706;83;21766;-87
2022/06/29 10:24:04;;;;;;;6.05;3.22;;;;;;;25.12;47.27;101545.17;1728407;83;21034;-87
2022/06/29 10:26:37;;;;;;;6.50;5.03;;;;;;;25.17;47.42;101554.02;1722573;82;21158;-87
2022/06/29 10:29:12;;;;;;;5.20;4.70;;;;;;;25.24;47.46;101546.25;1726106;83;22110;-87
2022/06/29 10:32:02;;;;;;;4.50;3.45;;;;;;;25.31;47.57;101547.89;1721822;83;21058;-90
2022/06/29 10:34:34;;;;;;;6.85;3.52;;;;;;;25.34;47.36;101553.66;1722424;83;21818;-88
2022/06/29 10:37:15;;;;;;;4.92;3.77;;;;;;;25.38;47.31;101552.22;1713127;83;21066;-87
2022/06/29 10:39:51;;;;;;;4.75;3.40;;;;;;;25.55;47.42;101546.88;1715566;83;21046;-87
2022/06/29 10:45:24;;;;;;;5.20;3.77;;;;;;;25.92;47.31;101549.56;1709893;82;21149;-87
2022/06/29 10:47:58;;;;;;;5.22;4.42;;;;;;;26.12;47.33;101553.52;1718655;82;21806;-88
2022/06/29 10:50:31;;;;;;;4.55;3.20;;;;;;;26.30;47.22;101542.70;1710563;81;21079;-87
2022/06/29 10:53:05;;;;;;;4.70;3.15;;;;;;;26.34;46.91;101538.51;1698901;82;21089;-88
2022/06/29 10:55:36;;;;;;;4.72;4.10;;;;;;;26.31;47.02;101543.11;1707819;83;21150;-87
2022/06/29 10:58:03;;;;;;;5.53;3.20;;;;;;;26.36;47.34;101539.82;1700309;83;21128;-88
2022/06/29 11:00:33;;;;;;;7.42;3.42;;;;;;;26.26;47.13;101539.64;1726925;82;21766;-87
2022/06/29 11:03:10;;;;;;;7.97;3.17;;;;;;;26.26;47.56;101530.20;1722426;82;21105;-88
2022/06/29 11:05:37;;;;;;;7.10;4.25;;;;;;;26.22;47.48;101529.39;1719802;82;21362;-87
2022/06/29 11:13:37;;;;;;;4.10;3.60;;;;;;;25.93;47.81;101539.17;1740302;82;21789;-88
2022/06/29 11:16:06;;;;;;;4.15;3.22;;;;;;;25.96;47.75;101543.62;1741456;82;21069;-88
2022/06/29 11:18:33;;;;;;;5.22;3.27;;;;;;;25.92;47.73;101544.16;1731917;82;21579;-88
2022/06/29 11:21:04;;;;;;;4.30;3.72;;;;;;;25.95;47.65;101541.37;1733608;82;21126;-88
2022/06/29 11:23:33;;;;;;;9.23;4.58;;;;;;;25.86;47.88;101533.95;1714397;82;21072;-88
2022/06/29 11:26:03;;;;;;;7.70;3.55;;;;;;;26.03;48.03;101532.19;1720744;82;21786;-88
2022/06/29 11:28:31;;;;;;;3.55;3.25;;;;;;;26.09;47.89;101532.02;1720975;81;21092;-88
2022/06/29 11:31:02;;;;;;;3.77;3.02;;;;;;;26.19;47.79;101526.80;1729222;82;21571;-88
2022/06/29 11:33:30;;;;;;;7.90;4.20;;;;;;;26.25;47.47;101523.05;1725366;81;21183;-87
2022/06/29 11:35:57;;;;;;;6.00;3.52;;;;;;;25.96;47.71;101528.31;1711174;83;21712;-88
2022/06/29 11:38:27;;;;;;;3.62;3.00;;;;;;;25.72;47.95;101527.11;1740970;82;21804;-87
2022/06/29 11:40:54;;;;;;;3.42;2.92;;;;;;;25.48;48.31;101522.34;1727744;82;21069;-88
2022/06/29 11:43:21;;;;;;;9.48;3.00;;;;;;;25.09;48.39;101530.42;1741044;82;21061;-88
2022/06/29 11:45:56;;;;;;;5.75;3.70;;;;;;;24.75;49.23;101520.41;1712801;82;21352;-88
2022/06/29 11:48:25;;;;;;;4.90;2.65;;;;;;;24.68;49.78;101518.29;1716243;82;21057;-88
2022/06/29 11:50:56;;;;;;;4.58;2.83;;;;;;;24.66;50.03;101524.17;1716554;82;21755;-88
2022/06/29 11:53:47;;;;;;;7.50;3.20;;;;;;;24.80;50.35;101521.20;1719927;82;21053;-88
2022/06/29 11:56:18;;;;;;;5.60;3.52;;;;;;;24.89;50.20;101523.69;1710415;82;21200;-88
2022/06/29 11:58:49;;;;;;;5.58;3.02;;;;;;;24.80;50.15;101521.20;1716603;83;21596;-88